Time;durP1;ratioP1;P1;durP2;ratioP2;P2;SDS_P1;SDS_P2;PMS_P1;PMS_P2;Temp;Humidity;BMP_temperature;BMP_pressure;BME280_temperature;BME280_humidity;BME280_pressure;Samples;Min_cycle;Max_cycle;Signal;HPM_P1;HPM_P2
2022/11/29 00:00:46;;;;;;;1.10;1.10;;;;;;;8.64;81.87;100817.63;5139358;28;20506;-90
2022/11/29 00:03:16;;;;;;;1.23;1.13;;;;;;;8.79;81.06;100824.34;5178336;28;20038;-90
2022/11/29 00:05:47;;;;;;;1.10;1.10;;;;;;;8.85;80.62;100833.84;5170989;28;20498;-88
2022/11/29 00:08:19;;;;;;;0.30;0.30;;;;;;;8.79;81.14;100825.22;5134854;28;20058;-89
2022/11/29 00:10:49;;;;;;;1.17;1.17;;;;;;;8.78;81.16;100827.84;5150503;28;20026;-88
2022/11/29 00:13:20;;;;;;;1.50;1.48;;;;;;;8.86;81.13;100825.09;5143462;28;20045;-89
2022/11/29 00:15:50;;;;;;;1.10;1.08;;;;;;;8.76;81.81;100825.25;5154460;28;20045;-90
2022/11/29 00:18:21;;;;;;;6.55;2.70;;;;;;;8.81;81.27;100822.56;5134787;28;20030;-90
2022/11/29 00:20:51;;;;;;;0.85;0.85;;;;;;;8.80;81.72;100832.16;5137859;28;20076;-89
2022/11/29 00:23:22;;;;;;;1.58;1.35;;;;;;;8.79;81.62;100827.84;5167009;28;20073;-89
2022/11/29 00:25:52;;;;;;;0.50;0.50;;;;;;;8.77;81.93;100832.22;5154396;28;20054;-89
2022/11/29 00:28:23;;;;;;;0.85;0.85;;;;;;;8.72;82.18;100823.56;5154283;28;20031;-89
2022/11/29 00:30:53;;;;;;;2.47;2.13;;;;;;;8.70;82.16;100830.63;5135108;28;20107;-89
2022/11/29 00:33:24;;;;;;;1.75;1.65;;;;;;;8.65;82.38;100835.03;5151771;28;20444;-88
2022/11/29 00:35:54;;;;;;;0.40;0.40;;;;;;;8.68;81.85;100835.00;5166696;28;20090;-90
2022/11/29 00:38:26;;;;;;;2.33;2.08;;;;;;;8.67;81.77;100830.66;5151864;28;20049;-90
2022/11/29 00:40:57;;;;;;;5.00;2.92;;;;;;;8.68;81.59;100835.00;5145044;28;20110;-89
2022/11/29 00:43:27;;;;;;;1.13;1.13;;;;;;;8.67;81.98;100830.66;5155176;28;20122;-89
2022/11/29 00:45:58;;;;;;;0.50;0.50;;;;;;;8.78;81.83;100838.31;5137574;28;20614;-89
2022/11/29 00:48:29;;;;;;;2.08;1.95;;;;;;;8.80;81.25;100837.38;5134087;28;20041;-89
2022/11/29 00:51:00;;;;;;;1.45;1.35;;;;;;;8.86;81.12;100835.56;5170067;28;20219;-88
2022/11/29 00:53:32;;;;;;;0.85;0.85;;;;;;;8.76;81.52;100840.13;5168602;28;20050;-90
2022/11/29 00:56:04;;;;;;;1.05;1.05;;;;;;;8.81;81.26;100839.13;5169029;28;20133;-89
2022/11/29 00:58:35;;;;;;;1.08;1.08;;;;;;;8.79;81.47;100840.03;5146174;28;20586;-90
2022/11/29 01:01:05;;;;;;;1.60;1.50;;;;;;;8.76;82.02;100837.50;5183117;28;20138;-88
2022/11/29 01:03:36;;;;;;;1.77;1.65;;;;;;;8.75;81.49;100841.00;5151336;28;20050;-89
2022/11/29 01:06:09;;;;;;;1.00;1.00;;;;;;;8.76;81.30;100842.72;5160791;28;20557;-89
2022/11/29 01:08:40;;;;;;;2.47;2.28;;;;;;;8.70;81.88;100846.31;5196900;28;20050;-89
2022/11/29 01:11:20;;;;;;;2.10;1.40;;;;;;;8.74;81.82;100844.50;5160650;28;20518;-89
2022/11/29 01:13:55;;;;;;;0.43;0.43;;;;;;;8.77;81.35;100842.69;5150208;28;20105;-89
2022/11/29 01:16:27;;;;;;;0.88;0.88;;;;;;;8.75;81.56;100843.63;5152304;28;20463;-89
2022/11/29 01:18:57;;;;;;;0.80;0.80;;;;;;;8.70;81.87;100850.66;5136544;28;20121;-89
2022/11/29 01:21:29;;;;;;;1.50;1.40;;;;;;;8.72;81.77;100854.13;5133527;28;20023;-88
2022/11/29 01:24:00;;;;;;;1.38;1.23;;;;;;;8.75;81.71;100846.22;5148898;28;20058;-86
2022/11/29 01:26:31;;;;;;;1.35;1.27;;;;;;;8.72;81.56;100859.34;5136869;28;20048;-89
2022/11/29 01:29:02;;;;;;;2.53;0.95;;;;;;;8.85;80.92;100849.53;5145268;28;20091;-89
2022/11/29 01:31:36;;;;;;;1.98;0.95;;;;;;;8.95;80.72;100845.88;5151349;28;20030;-88
2022/11/29 01:34:07;;;;;;;2.15;2.05;;;;;;;8.79;81.19;100846.16;5166851;28;20022;-89
2022/11/29 01:36:37;;;;;;;1.52;1.42;;;;;;;8.82;80.67;100847.84;5151386;28;20052;-88
2022/11/29 01:39:09;;;;;;;1.17;1.15;;;;;;;8.75;81.87;100847.06;5150383;28;20042;-89
2022/11/29 01:41:39;;;;;;;2.50;1.55;;;;;;;8.74;81.48;100854.97;5183652;28;20088;-89
2022/11/29 01:44:13;;;;;;;1.45;1.42;;;;;;;8.84;81.78;100850.41;5138378;28;20031;-89
2022/11/29 01:46:47;;;;;;;;;;;;;;;8.81;82.00;100848.72;5159359;28;20030;-90
2022/11/29 01:49:20;;;;;;;0.60;0.60;;;;;;;8.80;81.47;100858.31;5135804;28;19932;-88
2022/11/29 01:51:57;;;;;;;1.48;1.40;;;;;;;8.75;81.89;100854.06;5184068;28;20096;-87
2022/11/29 01:54:29;;;;;;;1.02;1.02;;;;;;;8.75;81.86;100859.31;5138992;28;20082;-88
2022/11/29 01:57:04;;;;;;;1.70;1.60;;;;;;;8.81;81.75;100860.03;5166967;28;20035;-89
2022/11/29 01:59:40;;;;;;;0.43;0.43;;;;;;;8.73;82.08;100859.31;5148290;28;20061;-88
2022/11/29 02:02:22;;;;;;;1.05;0.98;;;;;;;8.75;82.50;100869.78;5147810;28;20037;-88
2022/11/29 02:04:53;;;;;;;1.25;1.15;;;;;;;8.74;82.04;100863.66;5169577;28;20061;-89
2022/11/29 02:07:23;;;;;;;3.20;1.45;;;;;;;8.71;82.12;100866.34;5135898;28;20026;-88
2022/11/29 02:09:54;;;;;;;1.77;1.67;;;;;;;8.74;81.68;100868.03;5169954;28;20034;-88
2022/11/29 02:12:53;;;;;;;1.38;1.27;;;;;;;8.74;81.67;100858.44;5165310;28;20133;-88
2022/11/29 02:15:49;;;;;;;2.65;1.17;;;;;;;8.82;81.58;100867.00;5152128;28;20439;-87
2022/11/29 02:18:25;;;;;;;0.98;0.98;;;;;;;8.73;82.88;100868.94;5135893;28;20222;-88
2022/11/29 02:21:14;;;;;;;5.50;2.22;;;;;;;8.78;82.32;100870.59;5147667;28;20680;-89
2022/11/29 02:24:09;;;;;;;0.93;0.93;;;;;;;8.75;83.06;100880.25;5148919;28;20057;-89
2022/11/29 02:26:45;;;;;;;2.70;2.10;;;;;;;8.61;83.49;100872.63;5183508;28;20042;-88
2022/11/29 02:29:25;;;;;;;2.33;2.08;;;;;;;8.63;83.37;100873.47;5134723;28;20464;-89
2022/11/29 02:31:58;;;;;;;2.75;2.55;;;;;;;8.61;82.71;100876.09;5131674;28;20041;-88
2022/11/29 02:34:36;;;;;;;0.63;0.57;;;;;;;8.63;82.63;100876.94;5168490;28;20190;-89
2022/11/29 02:37:27;;;;;;;0.82;0.82;;;;;;;8.61;82.77;100872.63;5168755;28;20026;-90
2022/11/29 02:40:16;;;;;;;1.40;1.33;;;;;;;8.59;82.24;100870.03;5127044;28;20099;-88
2022/11/29 02:43:12;;;;;;;0.82;0.80;;;;;;;8.66;82.41;100887.34;5163453;28;20034;-89
2022/11/29 02:46:04;;;;;;;2.10;2.00;;;;;;;8.65;82.26;100884.75;5166794;28;20038;-89
2022/11/29 02:48:56;;;;;;;1.65;1.58;;;;;;;8.70;82.32;100888.16;5154940;28;20097;-90
2022/11/29 02:51:38;;;;;;;1.13;1.02;;;;;;;8.66;82.18;100887.34;5158698;28;20818;-89
2022/11/29 02:54:30;;;;;;;0.43;0.43;;;;;;;8.64;82.37;100890.84;5163403;28;20388;-89
2022/11/29 02:57:18;;;;;;;1.88;1.73;;;;;;;8.68;82.02;100896.94;5136834;28;20432;-88
2022/11/29 03:00:15;;;;;;;1.25;1.15;;;;;;;8.64;82.32;100894.34;5164588;28;20069;-89
2022/11/29 03:03:11;;;;;;;2.63;2.15;;;;;;;8.71;82.09;100895.13;5138786;28;20042;-88
2022/11/29 03:06:23;;;;;;;1.02;1.02;;;;;;;8.70;81.96;100889.91;5151354;28;20037;-88
2022/11/29 03:09:20;;;;;;;2.80;2.50;;;;;;;8.74;82.36;100895.06;5164989;28;20046;-88
2022/11/29 03:12:15;;;;;;;1.90;1.80;;;;;;;8.76;81.68;100898.50;5133977;28;20111;-89
2022/11/29 03:15:15;;;;;;;8.65;1.73;;;;;;;8.74;81.77;100895.06;5162789;28;20045;-88
2022/11/29 03:18:23;;;;;;;0.70;0.70;;;;;;;8.70;82.00;100903.84;5134004;28;20034;-89
2022/11/29 03:20:54;;;;;;;0.75;0.75;;;;;;;8.71;81.69;100910.81;5164602;28;20046;-89
2022/11/29 03:23:31;;;;;;;0.98;0.98;;;;;;;8.68;81.89;100910.84;5140976;28;20070;-88
2022/11/29 03:26:13;;;;;;;3.38;2.40;;;;;;;8.67;81.83;100914.34;5162787;28;20039;-88
2022/11/29 03:29:05;;;;;;;4.47;3.33;;;;;;;8.76;81.94;100919.44;5148675;28;20255;-88
2022/11/29 03:31:46;;;;;;;1.88;1.77;;;;;;;8.66;82.27;100923.09;5146905;28;20598;-89
2022/11/29 03:34:29;;;;;;;1.38;1.35;;;;;;;8.69;82.05;100917.81;5162551;28;20046;-88
2022/11/29 03:37:24;;;;;;;2.55;1.90;;;;;;;8.71;81.87;100923.91;5162592;28;20050;-88
2022/11/29 03:40:06;;;;;;;1.50;1.45;;;;;;;8.66;82.32;100929.19;5145623;28;20046;-89
2022/11/29 03:43:03;;;;;;;1.35;1.30;;;;;;;8.73;82.28;100929.94;5151278;28;20046;-89
2022/11/29 03:45:50;;;;;;;3.05;2.25;;;;;;;8.70;82.34;100932.63;5166638;28;20228;-89
2022/11/29 03:48:30;;;;;;;2.28;2.08;;;;;;;8.70;82.40;100934.38;5130879;28;20251;-89
2022/11/29 03:51:15;;;;;;;2.30;1.67;;;;;;;8.69;82.42;100928.28;5167374;28;20026;-89
2022/11/29 03:54:02;;;;;;;3.47;3.28;;;;;;;8.71;82.55;100936.09;5133448;28;20030;-90
2022/11/29 03:56:35;;;;;;;2.70;1.98;;;;;;;8.72;82.38;100936.06;5149840;28;20538;-89
2022/11/29 03:59:37;;;;;;;2.40;2.30;;;;;;;8.73;82.23;100937.78;5152366;28;20042;-89
2022/11/29 04:02:55;;;;;;;1.90;1.80;;;;;;;8.70;82.49;100940.47;5148186;28;20460;-88
2022/11/29 04:06:07;;;;;;;2.97;2.78;;;;;;;8.75;82.26;100933.41;5101626;28;20613;-88
2022/11/29 04:08:56;;;;;;;1.92;1.83;;;;;;;8.76;82.73;100943.00;5152878;28;20310;-88
2022/11/29 04:11:30;;;;;;;1.60;1.50;;;;;;;8.80;81.96;100944.66;5132333;28;20512;-88
2022/11/29 04:14:12;;;;;;;;;;;;;;;8.75;82.51;100951.72;5191773;28;20049;-89
2022/11/29 04:17:13;;;;;;;2.22;2.08;;;;;;;8.74;82.92;100947.38;5168610;28;19921;-89
2022/11/29 04:19:53;;;;;;;4.47;3.10;;;;;;;8.72;82.53;100953.53;5167068;28;20527;-88
2022/11/29 04:22:29;;;;;;;0.95;0.95;;;;;;;8.75;82.48;100953.50;5151078;28;20031;-89
2022/11/29 04:25:23;;;;;;;5.72;4.47;;;;;;;8.74;82.71;100952.59;5184580;28;20045;-89
2022/11/29 04:27:54;;;;;;;;;;;;;;;8.76;82.25;100955.22;5147148;28;20053;-88
2022/11/29 04:30:26;;;;;;;6.88;1.98;;;;;;;8.72;82.72;100957.00;5136836;28;19913;-88
2022/11/29 04:33:38;;;;;;;2.58;2.38;;;;;;;8.76;83.00;100961.31;5151702;28;20132;-90
2022/11/29 04:36:47;;;;;;;6.40;2.72;;;;;;;8.77;82.81;100968.28;5073691;29;20032;-88
2022/11/29 04:39:49;;;;;;;4.63;2.97;;;;;;;8.77;82.94;100970.88;5141221;28;20134;-89
2022/11/29 04:42:37;;;;;;;4.88;3.00;;;;;;;8.77;82.62;100968.28;5173271;28;20504;-88
2022/11/29 04:45:14;;;;;;;2.05;1.95;;;;;;;8.75;83.24;100980.50;5147049;28;20088;-88
2022/11/29 04:48:10;;;;;;;4.00;3.60;;;;;;;8.82;82.50;100976.06;5181062;28;20295;-90
2022/11/29 04:51:03;;;;;;;3.17;2.97;;;;;;;8.78;82.79;100976.97;5138445;28;21059;-89
2022/11/29 04:53:55;;;;;;;5.43;4.70;;;;;;;8.77;82.65;100978.72;5150127;28;20061;-88
2022/11/29 04:56:45;;;;;;;4.53;2.97;;;;;;;8.75;82.97;100988.34;5186718;28;20038;-89
2022/11/29 04:59:30;;;;;;;3.70;3.42;;;;;;;8.85;82.27;100990.84;5154397;28;20041;-89
2022/11/29 05:02:13;;;;;;;7.28;4.53;;;;;;;8.81;83.73;100996.09;5162958;28;20034;-90
2022/11/29 05:05:19;;;;;;;4.32;3.92;;;;;;;8.79;84.22;100997.91;5130895;28;20093;-89
2022/11/29 05:08:11;;;;;;;2.53;2.40;;;;;;;8.78;83.54;100997.91;5102098;29;20051;-88
2022/11/29 05:11:03;;;;;;;7.05;4.07;;;;;;;8.76;83.28;101005.78;5160677;28;20447;-86
2022/11/29 05:14:06;;;;;;;7.68;5.05;;;;;;;8.78;84.04;101004.00;5146538;28;20059;-84
2022/11/29 05:16:59;;;;;;;3.83;3.53;;;;;;;8.75;83.54;101011.91;5147503;28;20049;-86
2022/11/29 05:19:48;;;;;;;3.38;3.10;;;;;;;8.79;83.06;101008.38;5171451;28;20104;-87
2022/11/29 05:22:56;;;;;;;2.95;2.75;;;;;;;8.79;83.29;101015.34;5180065;28;20026;-87
2022/11/29 05:25:33;;;;;;;6.38;4.25;;;;;;;8.71;84.50;101015.47;5075359;29;20419;-86
2022/11/29 05:28:09;;;;;;;2.35;2.15;;;;;;;8.78;83.56;101017.09;5088199;29;20046;-86
2022/11/29 05:31:00;;;;;;;10.23;4.28;;;;;;;8.66;84.15;101018.16;5139262;28;20078;-87
2022/11/29 05:33:45;;;;;;;5.70;3.45;;;;;;;8.79;83.91;101034.53;5148280;28;20122;-86
2022/11/29 05:36:50;;;;;;;1.70;1.60;;;;;;;8.79;83.87;101024.06;5154230;28;20109;-87
2022/11/29 05:39:39;;;;;;;3.60;3.33;;;;;;;8.90;83.54;101023.00;5082285;28;20038;-84
2022/11/29 05:42:28;;;;;;;5.05;4.35;;;;;;;8.75;83.44;101032.81;5178729;28;20026;-84
2022/11/29 05:45:02;;;;;;;8.98;3.70;;;;;;;8.65;83.76;101028.59;5180009;28;20368;-88
2022/11/29 05:47:45;;;;;;;;;;;;;;;8.66;83.62;101040.81;5187087;28;20022;-86
2022/11/29 05:50:34;;;;;;;4.43;4.03;;;;;;;8.66;83.71;101044.31;5153098;28;19917;-87
2022/11/29 05:53:23;;;;;;;1.95;1.85;;;;;;;8.74;83.27;101046.78;5161585;28;20661;-87
2022/11/29 05:56:04;;;;;;;3.10;2.85;;;;;;;8.66;83.63;101049.53;5160343;28;20636;-87
2022/11/29 05:59:10;;;;;;;5.78;4.28;;;;;;;8.75;83.19;101053.75;5160219;28;20491;-87
2022/11/29 06:02:00;;;;;;;4.30;3.53;;;;;;;8.76;83.33;101058.09;5159241;28;20113;-87
2022/11/29 06:05:32;;;;;;;2.70;2.53;;;;;;;8.80;82.89;101057.16;5130438;28;20054;-87
2022/11/29 06:08:20;;;;;;;4.63;4.25;;;;;;;8.77;83.40;101067.69;5088025;28;20038;-85
2022/11/29 06:11:00;;;;;;;4.43;4.03;;;;;;;8.78;83.32;101061.56;5097642;28;20067;-87
2022/11/29 06:14:04;;;;;;;3.78;3.53;;;;;;;8.76;83.17;101065.97;5119128;28;20036;-87
2022/11/29 06:16:55;;;;;;;2.17;2.08;;;;;;;8.74;83.16;101072.09;5155580;28;20634;-86
2022/11/29 06:19:52;;;;;;;7.80;5.00;;;;;;;8.73;83.40;101081.69;5164039;28;20050;-87
2022/11/29 06:22:29;;;;;;;3.90;2.42;;;;;;;8.74;83.35;101072.97;5137696;28;20397;-86
2022/11/29 06:25:31;;;;;;;7.32;3.33;;;;;;;8.71;83.52;101078.25;5128520;28;20037;-87
2022/11/29 06:28:07;;;;;;;4.78;4.07;;;;;;;8.82;83.33;101073.72;5162066;28;20042;-87
2022/11/29 06:31:01;;;;;;;4.50;4.10;;;;;;;8.80;83.77;101080.72;5166191;28;20068;-87
2022/11/29 06:33:36;;;;;;;2.20;2.10;;;;;;;8.67;84.33;101084.41;5162830;28;20444;-87
2022/11/29 06:36:18;;;;;;;13.60;4.93;;;;;;;8.83;84.02;101090.28;5164431;28;20037;-86
2022/11/29 06:38:49;;;;;;;5.65;4.95;;;;;;;8.72;84.80;101087.81;5160192;28;20141;-86
2022/11/29 06:41:22;;;;;;;10.20;6.35;;;;;;;8.82;83.61;101092.03;5134090;28;20256;-86
2022/11/29 06:43:53;;;;;;;2.88;2.67;;;;;;;8.77;83.86;101088.63;5129686;28;20035;-88
2022/11/29 06:46:46;;;;;;;2.03;1.83;;;;;;;8.63;84.42;101094.03;5175781;28;20592;-85
2022/11/29 06:49:20;;;;;;;3.55;3.25;;;;;;;8.71;84.53;101096.56;5160776;28;20531;-86
2022/11/29 06:51:53;;;;;;;;;;;;;;;8.79;83.76;101101.66;5159111;28;20042;-86
2022/11/29 06:54:52;;;;;;;6.43;4.57;;;;;;;8.79;83.47;101102.56;5171041;28;19918;-85
2022/11/29 06:57:49;;;;;;;4.60;4.13;;;;;;;8.75;83.76;101100.84;5143249;28;20351;-86
2022/11/29 07:00:29;;;;;;;6.20;4.43;;;;;;;8.66;83.75;101100.97;5159458;28;20309;-85
2022/11/29 07:03:27;;;;;;;3.47;3.28;;;;;;;8.75;83.53;101106.09;5167075;28;20035;-86
2022/11/29 07:05:58;;;;;;;9.07;5.70;;;;;;;8.65;84.18;101104.47;5176063;28;20430;-86
2022/11/29 07:08:28;;;;;;;4.88;3.60;;;;;;;8.65;83.75;101109.69;5139721;28;20057;-86
2022/11/29 07:10:59;;;;;;;6.35;5.45;;;;;;;8.66;83.97;101106.19;5139956;28;20077;-87
2022/11/29 07:13:30;;;;;;;5.20;4.18;;;;;;;8.75;83.53;101111.31;5160194;28;20042;-85
2022/11/29 07:16:16;;;;;;;4.53;4.13;;;;;;;8.65;83.86;101114.94;5161029;28;20055;-85
2022/11/29 07:19:02;;;;;;;2.47;2.20;;;;;;;8.61;83.80;101113.25;5159369;28;20042;-87
2022/11/29 07:21:57;;;;;;;11.15;3.90;;;;;;;8.62;83.63;101123.69;5151899;28;20038;-86
2022/11/29 07:24:51;;;;;;;7.40;4.95;;;;;;;8.63;83.79;101127.19;5160100;28;20707;-87
2022/11/29 07:27:36;;;;;;;2.45;2.30;;;;;;;8.67;84.06;101126.25;5144968;28;20519;-87
2022/11/29 07:30:17;;;;;;;4.38;3.97;;;;;;;8.74;83.76;101134.91;5163189;28;20098;-88
2022/11/29 07:33:03;;;;;;;6.25;4.40;;;;;;;8.71;83.25;101140.16;5120454;28;20069;-86
2022/11/29 07:35:56;;;;;;;4.90;4.43;;;;;;;8.63;83.88;101146.34;5158533;28;20176;-86
2022/11/29 07:38:36;;;;;;;3.30;3.08;;;;;;;8.57;84.99;101149.03;5142622;28;20118;-85
2022/11/29 07:41:18;;;;;;;5.43;3.22;;;;;;;8.50;84.73;101150.00;5173515;28;20038;-85
2022/11/29 07:44:18;;;;;;;4.70;4.30;;;;;;;8.69;83.94;101158.50;5145185;28;20056;-86
2022/11/29 07:46:48;;;;;;;7.72;2.08;;;;;;;8.66;83.38;101163.75;5138912;28;20558;-86
2022/11/29 07:49:19;;;;;;;2.60;2.42;;;;;;;8.61;83.58;101165.56;5161870;28;20104;-86
2022/11/29 07:51:49;;;;;;;2.65;2.50;;;;;;;8.61;83.52;101169.03;5130419;28;20153;-86
2022/11/29 07:54:20;;;;;;;7.53;3.40;;;;;;;8.60;83.99;101167.31;5129849;28;20027;-86
2022/11/29 07:56:51;;;;;;;2.78;2.63;;;;;;;8.65;83.71;101175.09;5163205;28;20117;-85
2022/11/29 07:59:21;;;;;;;4.75;2.95;;;;;;;8.67;83.52;101173.34;5146923;28;20068;-86
2022/11/29 08:01:52;;;;;;;3.58;3.08;;;;;;;8.65;83.19;101168.13;5161648;28;20186;-86
2022/11/29 08:04:22;;;;;;;4.30;3.72;;;;;;;8.57;83.69;101172.59;5166409;28;20057;-85
2022/11/29 08:06:53;;;;;;;4.00;2.35;;;;;;;8.60;83.78;101176.91;5176168;28;20057;-87
2022/11/29 08:09:23;;;;;;;3.60;3.30;;;;;;;8.71;82.92;101177.66;5158129;28;20519;-86
2022/11/29 08:11:54;;;;;;;6.63;3.95;;;;;;;8.67;83.03;101178.56;5145846;28;20068;-86
2022/11/29 08:14:24;;;;;;;3.38;3.13;;;;;;;8.74;82.82;101172.38;5163055;28;20078;-86
2022/11/29 08:16:55;;;;;;;6.57;3.00;;;;;;;8.73;83.43;101181.09;5150985;28;20234;-86
2022/11/29 08:19:25;;;;;;;2.15;2.00;;;;;;;8.67;83.13;101181.19;5178518;28;20038;-86
2022/11/29 08:21:55;;;;;;;1.75;1.65;;;;;;;8.66;83.76;101188.19;5147439;28;20033;-86
2022/11/29 08:24:26;;;;;;;5.13;3.90;;;;;;;8.68;83.53;101185.53;5144000;28;20034;-86
2022/11/29 08:26:57;;;;;;;5.22;4.22;;;;;;;8.75;83.18;101195.03;5142944;28;20134;-85
2022/11/29 08:29:27;;;;;;;26.02;2.53;;;;;;;8.72;83.18;101197.69;5161667;28;20145;-87
2022/11/29 08:31:58;;;;;;;5.60;4.85;;;;;;;8.80;82.75;101190.59;5149477;28;20032;-86
2022/11/29 08:34:28;;;;;;;9.68;3.42;;;;;;;8.74;82.70;101193.31;5148789;28;20034;-87
2022/11/29 08:36:59;;;;;;;4.68;4.20;;;;;;;8.77;82.81;101193.28;5147618;28;20042;-86
2022/11/29 08:39:29;;;;;;;5.82;4.45;;;;;;;8.75;82.52;101195.03;5161833;28;20042;-85
2022/11/29 08:42:00;;;;;;;2.80;2.60;;;;;;;8.71;82.91;101197.72;5166574;28;20019;-87
2022/11/29 08:44:30;;;;;;;3.78;3.47;;;;;;;8.68;82.92;101203.00;5173614;28;20026;-87
2022/11/29 08:50:02;;;;;;;3.60;3.30;;;;;;;8.86;82.68;101205.38;5140449;28;20042;-86
2022/11/29 08:55:33;;;;;;;3.53;2.47;;;;;;;8.69;83.54;101210.81;5179047;28;20113;-87
2022/11/29 08:58:08;;;;;;;2.53;2.10;;;;;;;8.78;82.50;101212.44;5166542;28;20638;-85
2022/11/29 09:00:41;;;;;;;5.47;3.80;;;;;;;8.75;82.89;101221.19;5162368;28;20230;-86
2022/11/29 09:06:10;;;;;;;3.15;2.50;;;;;;;8.83;82.65;101218.50;5180285;28;20061;-85
2022/11/29 09:08:44;;;;;;;4.78;4.05;;;;;;;8.84;82.83;101224.59;5162695;28;20042;-86
2022/11/29 09:11:18;;;;;;;17.33;4.38;;;;;;;8.77;83.01;101229.91;5175469;28;20034;-86
2022/11/29 09:13:52;;;;;;;1.13;1.08;;;;;;;8.80;82.38;101235.09;5146153;28;20093;-86
2022/11/29 09:16:25;;;;;;;2.88;2.65;;;;;;;8.77;82.94;101235.16;5142225;28;20412;-86
2022/11/29 09:18:56;;;;;;;7.45;3.33;;;;;;;8.75;82.96;101236.91;5163719;28;20050;-87
2022/11/29 09:21:30;;;;;;;5.05;2.83;;;;;;;8.77;83.43;101236.88;5159640;28;20030;-86
2022/11/29 09:24:04;;;;;;;2.42;2.22;;;;;;;8.78;83.44;101243.84;5133743;28;20048;-87
2022/11/29 09:26:36;;;;;;;7.43;3.03;;;;;;;8.81;84.82;101241.22;5160795;28;20038;-86
2022/11/29 09:29:07;;;;;;;3.10;2.85;;;;;;;8.75;85.05;101238.66;5178170;28;20088;-86
2022/11/29 09:31:37;;;;;;;2.40;2.20;;;;;;;8.74;85.07;101240.41;5173392;28;20523;-86
2022/11/29 09:34:08;;;;;;;2.63;2.42;;;;;;;8.80;84.37;101239.47;5163223;28;20035;-86
2022/11/29 09:36:39;;;;;;;3.70;2.47;;;;;;;8.89;84.64;101243.72;5134147;28;20030;-86
2022/11/29 09:39:11;;;;;;;1.73;1.63;;;;;;;8.86;84.56;101244.63;5160757;28;20049;-87
2022/11/29 09:41:47;;;;;;;4.65;3.80;;;;;;;8.89;84.35;101246.34;5147305;28;20026;-87
2022/11/29 09:44:28;;;;;;;2.47;2.30;;;;;;;8.89;84.06;101256.81;5194922;28;20513;-85
2022/11/29 09:47:20;;;;;;;1.48;1.42;;;;;;;8.94;83.53;101262.88;5142443;28;20030;-87
2022/11/29 09:50:10;;;;;;;3.40;2.78;;;;;;;8.93;83.56;101266.38;5154920;28;20310;-86
2022/11/29 09:53:02;;;;;;;1.88;1.75;;;;;;;8.88;84.11;101266.41;5166304;28;20060;-86
2022/11/29 09:55:32;;;;;;;1.95;1.70;;;;;;;8.91;84.17;101268.13;5181244;28;20078;-86
2022/11/29 09:58:08;;;;;;;4.10;3.75;;;;;;;8.96;84.26;101266.34;5185685;28;20037;-86
2022/11/29 10:00:47;;;;;;;3.47;3.17;;;;;;;8.94;84.58;101262.88;5152217;28;20037;-87
2022/11/29 10:03:28;;;;;;;3.55;3.30;;;;;;;8.88;84.79;101265.56;5184507;28;20040;-86
2022/11/29 10:06:07;;;;;;;2.22;2.05;;;;;;;8.82;84.97;101269.09;5202422;28;20021;-87
2022/11/29 10:08:37;;;;;;;2.55;2.35;;;;;;;8.90;84.79;101271.63;5178214;28;20077;-86
2022/11/29 10:11:16;;;;;;;3.28;2.92;;;;;;;8.88;84.82;101276.03;5181905;28;20026;-86
2022/11/29 10:13:51;;;;;;;8.32;3.60;;;;;;;8.90;85.07;101276.84;5191036;28;20034;-88
2022/11/29 10:16:27;;;;;;;2.17;2.08;;;;;;;8.92;84.48;101278.59;5182009;28;20097;-86
2022/11/29 10:19:09;;;;;;;3.80;2.28;;;;;;;8.95;84.17;101275.06;5154447;28;20070;-86
2022/11/29 10:21:44;;;;;;;3.90;3.05;;;;;;;9.03;83.83;101278.47;5169857;28;20034;-86
2022/11/29 10:24:19;;;;;;;2.30;2.17;;;;;;;9.00;84.05;101278.50;5174975;28;20373;-86
2022/11/29 10:26:50;;;;;;;2.35;2.15;;;;;;;9.00;84.37;101280.25;5158238;28;20656;-86
2022/11/29 10:29:21;;;;;;;3.05;2.75;;;;;;;9.02;84.51;101276.72;5176328;28;20092;-86
2022/11/29 10:31:55;;;;;;;2.65;2.53;;;;;;;9.04;83.91;101284.56;5140734;28;20030;-86
2022/11/29 10:34:29;;;;;;;6.13;3.53;;;;;;;9.08;84.11;101281.03;5143705;28;20534;-85
2022/11/29 10:37:01;;;;;;;3.88;3.53;;;;;;;9.09;83.94;101275.78;5161737;28;20488;-86
2022/11/29 10:39:48;;;;;;;9.32;5.38;;;;;;;9.06;83.71;101272.31;5160947;28;20042;-86
2022/11/29 10:45:44;;;;;;;3.58;3.22;;;;;;;9.13;83.28;101280.06;5162818;28;20488;-85
2022/11/29 10:48:17;;;;;;;3.35;3.15;;;;;;;9.18;83.40;101272.16;5151427;28;20144;-86
2022/11/29 10:50:50;;;;;;;2.50;2.30;;;;;;;9.21;83.62;101276.53;5157029;28;20034;-86
2022/11/29 10:53:31;;;;;;;3.25;3.05;;;;;;;9.17;83.55;101269.56;5161844;28;20044;-86
2022/11/29 10:56:19;;;;;;;6.60;3.70;;;;;;;9.25;83.26;101275.56;5153831;28;20041;-85
2022/11/29 10:59:17;;;;;;;4.68;3.92;;;;;;;9.39;83.08;101276.25;5172964;28;20473;-86
2022/11/29 11:01:48;;;;;;;2.55;2.38;;;;;;;9.35;82.39;101274.59;5146013;28;20295;-85
2022/11/29 11:04:35;;;;;;;4.97;3.40;;;;;;;9.29;82.83;101275.53;5152981;28;20077;-85
2022/11/29 11:07:06;;;;;;;2.85;2.65;;;;;;;9.31;83.34;101272.03;5177406;28;20029;-86
2022/11/29 11:09:41;;;;;;;3.25;3.05;;;;;;;9.31;82.91;101275.50;5148460;28;20147;-86
2022/11/29 11:12:14;;;;;;;3.28;2.95;;;;;;;9.28;83.02;101271.16;5163041;28;20129;-85
2022/11/29 11:14:45;;;;;;;4.65;3.28;;;;;;;9.43;82.19;101272.72;5165432;28;20038;-87
2022/11/29 11:17:31;;;;;;;4.10;1.88;;;;;;;9.31;83.09;101270.25;5165040;28;20030;-85
2022/11/29 11:20:07;;;;;;;1.88;1.77;;;;;;;9.35;82.66;101274.59;5157361;28;20036;-87
2022/11/29 11:22:38;;;;;;;3.58;3.08;;;;;;;9.57;81.76;101272.53;5139282;28;20041;-86
2022/11/29 11:25:31;;;;;;;4.25;2.63;;;;;;;9.43;82.18;101272.72;5149466;28;20029;-86
2022/11/29 11:28:20;;;;;;;2.75;2.53;;;;;;;9.41;82.47;101274.50;5178986;28;20037;-86
2022/11/29 11:30:58;;;;;;;8.80;2.53;;;;;;;9.32;82.50;101273.75;5159497;28;20051;-86
2022/11/29 11:33:35;;;;;;;2.72;2.60;;;;;;;9.35;83.12;101274.59;5147074;28;20104;-86
2022/11/29 11:36:06;;;;;;;3.53;2.72;;;;;;;9.33;83.27;101271.09;5179105;28;20041;-86
2022/11/29 11:38:53;;;;;;;2.45;2.25;;;;;;;9.24;83.75;101272.09;5163803;28;20046;-86
2022/11/29 11:44:37;;;;;;;2.83;2.30;;;;;;;9.42;82.69;101278.00;5170377;28;20045;-86
2022/11/29 11:47:21;;;;;;;2.88;2.67;;;;;;;9.42;82.89;101286.72;5207562;28;20093;-87
2022/11/29 11:50:07;;;;;;;3.17;1.98;;;;;;;9.40;82.48;101283.22;5161452;28;20423;-87
2022/11/29 11:52:52;;;;;;;2.33;2.15;;;;;;;9.40;82.77;101288.47;5163304;28;20042;-86
2022/11/29 11:55:42;;;;;;;2.17;1.95;;;;;;;9.45;82.61;101291.03;5155497;28;20030;-87
2022/11/29 11:58:12;;;;;;;2.63;2.42;;;;;;;9.45;82.80;101286.69;5161243;28;20760;-87
2022/11/29 12:00:52;;;;;;;3.33;3.08;;;;;;;9.57;82.21;101292.63;5148224;28;20037;-87
2022/11/29 12:03:28;;;;;;;1.30;1.20;;;;;;;9.40;83.11;101296.31;5163241;28;20038;-87
2022/11/29 12:06:19;;;;;;;9.38;4.18;;;;;;;9.36;83.14;101294.66;5156097;28;20545;-87
2022/11/29 12:08:55;;;;;;;2.90;2.60;;;;;;;9.32;83.13;101295.56;5162964;28;20080;-86
2022/11/29 12:11:30;;;;;;;10.48;2.30;;;;;;;9.44;82.55;101290.19;5159018;28;20125;-87
2022/11/29 12:14:03;;;;;;;2.97;2.22;;;;;;;9.40;82.46;101298.94;5143436;28;20038;-86
2022/11/29 12:16:36;;;;;;;3.07;2.77;;;;;;;9.53;81.88;101296.19;5176933;28;20030;-86
2022/11/29 12:19:24;;;;;;;1.92;1.83;;;;;;;9.43;81.40;101298.91;5160934;28;20096;-86
2022/11/29 12:22:00;;;;;;;8.32;2.33;;;;;;;9.43;81.88;101301.53;5154813;28;20430;-87
2022/11/29 12:24:38;;;;;;;3.90;2.83;;;;;;;9.48;81.69;101305.84;5150352;28;20116;-87
2022/11/29 12:27:13;;;;;;;1.92;1.83;;;;;;;9.38;81.85;101307.72;5187190;28;20026;-86
2022/11/29 12:29:43;;;;;;;3.10;2.72;;;;;;;9.31;82.36;101304.28;5144580;28;20041;-87
2022/11/29 12:32:25;;;;;;;3.20;2.95;;;;;;;9.33;81.75;101315.63;5158203;28;20534;-86
2022/11/29 12:35:28;;;;;;;3.35;3.05;;;;;;;9.39;82.47;101322.53;5161580;28;20629;-87
2022/11/29 12:38:14;;;;;;;4.35;3.10;;;;;;;9.53;82.08;101322.38;5145632;28;20038;-88
2022/11/29 12:40:56;;;;;;;3.53;1.67;;;;;;;9.34;82.31;101317.38;5154002;28;20045;-87
2022/11/29 12:43:50;;;;;;;4.70;2.13;;;;;;;9.40;82.36;101319.91;5162022;28;20499;-87
2022/11/29 12:46:26;;;;;;;3.72;3.42;;;;;;;9.50;81.79;101328.53;5162336;28;20065;-87
2022/11/29 12:49:15;;;;;;;3.30;3.00;;;;;;;9.26;82.93;101330.53;5175280;28;20042;-87
2022/11/29 12:51:59;;;;;;;3.47;2.33;;;;;;;9.36;81.75;101328.69;5161698;28;20034;-87